Time;durP1;ratioP1;P1;durP2;ratioP2;P2;SDS_P1;SDS_P2;PMS_P1;PMS_P2;Temp;Humidity;BMP_temperature;BMP_pressure;BME280_temperature;BME280_humidity;BME280_pressure;Samples;Min_cycle;Max_cycle;Signal;HPM_P1;HPM_P2
2023/05/23 00:01:13;;;;;;;62.63;47.80;;;15.10;99.90;;;;;;4960702;28;20140;-72
2023/05/23 00:03:40;;;;;;;67.28;50.70;;;15.00;99.90;;;;;;4964220;28;20155;-72
2023/05/23 00:06:07;;;;;;;69.93;52.50;;;14.90;99.90;;;;;;4963383;28;20045;-72
2023/05/23 00:08:34;;;;;;;67.63;48.60;;;14.90;99.90;;;;;;4961875;28;20267;-71
2023/05/23 00:11:01;;;;;;;56.78;43.80;;;14.80;99.90;;;;;;4964270;28;20096;-72
2023/05/23 00:13:28;;;;;;;47.28;36.92;;;14.70;99.90;;;;;;4963736;28;20134;-72
2023/05/23 00:15:54;;;;;;;55.92;40.28;;;14.60;99.90;;;;;;4969218;28;20584;-72
2023/05/23 00:18:23;;;;;;;58.25;40.55;;;14.50;99.90;;;;;;4959607;28;20484;-72
2023/05/23 00:20:50;;;;;;;51.15;38.83;;;14.40;99.90;;;;;;4977905;28;20051;-72
2023/05/23 00:23:21;;;;;;;51.85;39.92;;;14.30;99.90;;;;;;4962566;28;20635;-71
2023/05/23 00:25:51;;;;;;;53.35;42.63;;;14.20;99.90;;;;;;4964989;28;20052;-72
2023/05/23 00:28:18;;;;;;;53.05;41.70;;;14.20;99.90;;;;;;4962602;28;20214;-71
2023/05/23 00:30:45;;;;;;;57.97;43.40;;;14.10;99.90;;;;;;4977321;28;20137;-72
2023/05/23 00:33:13;;;;;;;51.13;39.63;;;14.10;99.90;;;;;;4962528;28;20373;-71
2023/05/23 00:35:41;;;;;;;52.15;40.63;;;14.10;99.90;;;;;;4962485;28;20066;-71
2023/05/23 00:38:10;;;;;;;51.90;42.40;;;14.10;99.90;;;;;;4963123;28;20046;-71
2023/05/23 00:40:36;;;;;;;56.55;44.00;;;14.10;99.90;;;;;;4953412;28;20344;-71
2023/05/23 00:43:03;;;;;;;59.05;46.22;;;14.10;99.90;;;;;;4975356;28;20257;-71
2023/05/23 00:45:30;;;;;;;57.83;46.70;;;14.10;99.90;;;;;;4978396;28;20070;-71
2023/05/23 00:47:58;;;;;;;55.60;42.55;;;14.20;99.90;;;;;;4968370;28;20049;-71
2023/05/23 00:50:28;;;;;;;60.63;45.55;;;14.10;99.90;;;;;;4958208;28;20042;-70
2023/05/23 00:52:57;;;;;;;62.88;46.15;;;14.20;99.90;;;;;;4968837;28;20538;-72
2023/05/23 00:55:24;;;;;;;63.78;46.15;;;14.20;99.90;;;;;;4954182;28;20078;-71
2023/05/23 00:57:56;;;;;;;59.22;46.08;;;14.20;99.90;;;;;;4964456;28;20326;-71
2023/05/23 01:00:24;;;;;;;61.30;46.92;;;14.30;99.90;;;;;;4952189;28;20053;-71
2023/05/23 01:02:52;;;;;;;66.55;49.38;;;14.30;99.90;;;;;;4960209;28;20047;-73
2023/05/23 01:05:21;;;;;;;61.53;49.22;;;14.30;99.90;;;;;;4961561;28;20718;-70
2023/05/23 01:07:49;;;;;;;64.72;47.35;;;14.40;99.90;;;;;;4965280;28;20538;-71
2023/05/23 01:10:21;;;;;;;57.35;45.10;;;14.30;99.90;;;;;;4959361;28;20285;-71
2023/05/23 01:13:25;;;;;;;62.30;45.30;;;14.20;99.90;;;;;;4983260;28;20066;-71
2023/05/23 01:16:21;;;;;;;72.53;50.85;;;14.10;99.90;;;;;;4965981;28;20599;-71
2023/05/23 01:18:57;;;;;;;71.90;51.63;;;14.20;99.90;;;;;;4960998;28;20049;-71
2023/05/23 01:21:26;;;;;;;77.38;52.83;;;14.10;99.90;;;;;;4961076;28;20046;-71
2023/05/23 01:24:02;;;;;;;71.15;51.55;;;14.20;99.90;;;;;;4969191;28;20129;-70
2023/05/23 01:26:41;;;;;;;73.68;54.50;;;14.10;99.90;;;;;;4950413;28;20058;-72
2023/05/23 01:29:16;;;;;;;71.03;52.03;;;14.10;99.90;;;;;;4975433;28;20508;-71
2023/05/23 01:31:45;;;;;;;70.90;50.38;;;14.00;99.90;;;;;;4954762;28;20336;-71
2023/05/23 01:34:13;;;;;;;67.93;51.28;;;14.00;99.90;;;;;;4966014;28;20050;-71
2023/05/23 01:36:42;;;;;;;65.50;48.50;;;14.00;99.90;;;;;;4955597;28;20531;-71
2023/05/23 01:39:09;;;;;;;60.45;47.83;;;14.00;99.90;;;;;;4977186;28;20112;-71
2023/05/23 01:41:36;;;;;;;69.85;48.20;;;14.00;99.90;;;;;;4971201;28;20643;-71
2023/05/23 01:44:04;;;;;;;60.30;45.55;;;13.90;99.90;;;;;;4966846;28;20049;-71
2023/05/23 01:46:33;;;;;;;52.22;41.05;;;14.00;99.90;;;;;;4963000;28;20043;-71
2023/05/23 01:49:02;;;;;;;57.55;42.78;;;13.90;99.90;;;;;;4961492;28;20050;-71
2023/05/23 01:51:31;;;;;;;48.58;39.08;;;13.80;99.90;;;;;;4939540;28;20096;-72
2023/05/23 01:53:58;;;;;;;66.25;43.65;;;13.90;99.90;;;;;;4970209;28;20082;-72
2023/05/23 01:56:27;;;;;;;57.88;42.60;;;13.90;99.90;;;;;;4959192;28;20129;-71
2023/05/23 01:58:54;;;;;;;52.80;40.55;;;13.90;99.90;;;;;;4976194;28;20146;-72
2023/05/23 02:01:21;;;;;;;52.20;40.03;;;13.90;99.90;;;;;;4947487;28;20520;-72
2023/05/23 02:03:48;;;;;;;53.05;40.03;;;13.90;99.90;;;;;;4967663;28;20046;-72
2023/05/23 02:06:15;;;;;;;52.05;39.80;;;13.90;99.90;;;;;;4966440;28;20451;-71
2023/05/23 02:08:42;;;;;;;48.03;37.42;;;13.90;99.90;;;;;;4980302;28;20105;-72
2023/05/23 02:11:09;;;;;;;45.80;36.30;;;13.80;99.90;;;;;;4969767;28;20575;-72
2023/05/23 02:13:36;;;;;;;48.80;36.80;;;13.80;99.90;;;;;;4970801;28;21504;-72
2023/05/23 02:16:03;;;;;;;48.17;36.58;;;13.80;99.90;;;;;;4967453;28;20321;-72
2023/05/23 02:18:30;;;;;;;43.58;37.90;;;13.80;99.90;;;;;;4945025;28;20074;-72
2023/05/23 02:20:56;;;;;;;54.03;40.88;;;13.80;99.90;;;;;;4958219;28;20453;-72
2023/05/23 02:23:23;;;;;;;43.85;37.03;;;13.70;99.90;;;;;;4964014;28;20487;-71
2023/05/23 02:25:50;;;;;;;48.80;36.13;;;13.70;99.90;;;;;;4968297;28;20046;-72
2023/05/23 02:28:16;;;;;;;45.38;34.55;;;13.50;99.90;;;;;;4966756;28;20039;-70
2023/05/23 02:30:43;;;;;;;42.28;32.45;;;13.40;99.90;;;;;;4965251;28;21209;-71
2023/05/23 02:33:10;;;;;;;42.17;31.58;;;13.40;99.90;;;;;;4970125;28;20050;-71
2023/05/23 02:35:37;;;;;;;40.22;32.78;;;13.30;99.90;;;;;;4963097;28;21039;-71
2023/05/23 02:38:03;;;;;;;37.90;31.02;;;13.30;99.90;;;;;;4968490;28;20038;-71
2023/05/23 02:40:30;;;;;;;41.13;30.15;;;13.30;99.90;;;;;;4954860;28;20133;-71
2023/05/23 02:42:57;;;;;;;40.25;32.13;;;13.20;99.90;;;;;;4971103;28;20124;-71
2023/05/23 02:45:24;;;;;;;39.92;30.13;;;13.30;99.90;;;;;;4963492;28;20320;-71
2023/05/23 02:47:51;;;;;;;38.22;29.63;;;13.30;99.90;;;;;;4947216;28;20054;-71
2023/05/23 02:50:18;;;;;;;37.17;30.42;;;13.20;99.90;;;;;;4946310;28;20094;-70
2023/05/23 02:52:44;;;;;;;38.65;30.13;;;13.20;99.90;;;;;;4965234;28;20053;-71
2023/05/23 02:55:11;;;;;;;43.10;30.92;;;13.20;99.90;;;;;;4947805;28;20050;-72
2023/05/23 02:57:42;;;;;;;37.25;29.85;;;13.20;99.90;;;;;;4965856;28;20046;-72
2023/05/23 03:00:10;;;;;;;43.83;30.70;;;13.20;99.90;;;;;;4966284;28;20057;-71
2023/05/23 03:02:37;;;;;;;38.08;33.00;;;13.10;99.90;;;;;;4948279;28;20047;-71
2023/05/23 03:05:05;;;;;;;43.45;33.40;;;13.10;99.90;;;;;;4966012;28;20265;-70
2023/05/23 03:07:32;;;;;;;38.65;31.42;;;13.00;99.90;;;;;;4946078;28;20066;-71
2023/05/23 03:09:59;;;;;;;40.63;33.38;;;13.00;99.90;;;;;;4972341;28;20065;-71
2023/05/23 03:12:28;;;;;;;43.70;34.25;;;12.90;99.90;;;;;;4944354;28;20051;-71
2023/05/23 03:14:54;;;;;;;41.15;33.90;;;13.00;99.90;;;;;;4966548;28;20055;-74
2023/05/23 03:17:24;;;;;;;44.22;33.67;;;13.00;99.90;;;;;;4961124;28;20050;-71
2023/05/23 03:19:51;;;;;;;48.92;37.47;;;12.80;99.90;;;;;;4983204;28;20242;-71
2023/05/23 03:22:18;;;;;;;45.85;35.47;;;12.80;99.90;;;;;;4974559;28;20604;-71
2023/05/23 03:24:45;;;;;;;51.35;34.95;;;12.80;99.90;;;;;;4964859;28;20141;-71
2023/05/23 03:27:11;;;;;;;46.83;35.90;;;12.70;99.90;;;;;;4965045;28;20133;-71
2023/05/23 03:29:38;;;;;;;45.53;35.00;;;12.70;99.90;;;;;;4961841;28;20497;-70
2023/05/23 03:32:05;;;;;;;52.17;38.20;;;12.70;99.90;;;;;;4938596;28;20091;-71
2023/05/23 03:34:35;;;;;;;60.38;39.22;;;12.60;99.90;;;;;;4960640;28;20051;-71
2023/05/23 03:37:03;;;;;;;52.42;40.38;;;12.60;99.90;;;;;;4967062;28;20094;-71
2023/05/23 03:39:30;;;;;;;53.92;39.22;;;12.70;99.90;;;;;;4961865;28;20413;-71
2023/05/23 03:41:56;;;;;;;57.72;40.55;;;12.60;99.90;;;;;;4982983;28;20050;-70
2023/05/23 03:44:23;;;;;;;54.72;39.45;;;12.50;99.90;;;;;;4959967;28;20038;-71
2023/05/23 03:46:50;;;;;;;55.70;41.33;;;12.60;99.90;;;;;;4977067;28;20332;-71
2023/05/23 03:49:17;;;;;;;61.70;42.72;;;12.50;99.90;;;;;;4951230;28;20101;-71
2023/05/23 03:51:43;;;;;;;49.58;37.25;;;12.60;99.90;;;;;;4978865;28;20109;-70
2023/05/23 03:54:16;;;;;;;51.08;38.90;;;12.50;99.90;;;;;;4959457;28;20034;-71
2023/05/23 03:56:42;;;;;;;57.67;41.05;;;12.50;99.90;;;;;;4974819;28;20640;-73
2023/05/23 03:59:09;;;;;;;53.90;39.67;;;12.50;99.90;;;;;;4965208;28;20039;-70
2023/05/23 04:01:36;;;;;;;53.45;38.47;;;12.60;99.90;;;;;;4961491;28;20074;-71
2023/05/23 04:04:03;;;;;;;50.60;39.17;;;12.50;99.90;;;;;;4964918;28;20536;-71
2023/05/23 04:06:33;;;;;;;53.50;38.33;;;12.50;99.90;;;;;;4953558;28;20138;-70
2023/05/23 04:09:01;;;;;;;56.85;41.30;;;12.60;99.90;;;;;;4985168;28;20137;-70
2023/05/23 04:11:29;;;;;;;56.30;39.17;;;12.60;99.90;;;;;;4961153;28;20054;-70
2023/05/23 04:13:56;;;;;;;57.95;40.25;;;12.60;99.90;;;;;;4958686;28;20109;-71
2023/05/23 04:16:23;;;;;;;56.28;40.67;;;12.60;99.90;;;;;;4960223;28;20042;-70
2023/05/23 04:18:50;;;;;;;60.20;41.38;;;12.70;99.90;;;;;;4983396;28;20042;-70
2023/05/23 04:21:17;;;;;;;66.43;44.45;;;12.60;99.90;;;;;;4967208;28;20057;-71
2023/05/23 04:23:56;;;;;;;66.80;43.53;;;12.70;99.90;;;;;;4975804;28;20186;-70
2023/05/23 04:26:24;;;;;;;62.30;43.83;;;12.70;99.90;;;;;;4955990;28;20336;-71
2023/05/23 04:28:53;;;;;;;70.38;46.15;;;12.70;99.90;;;;;;4961361;28;20035;-71
2023/05/23 04:31:24;;;;;;;73.63;45.60;;;12.70;99.90;;;;;;4973452;28;20042;-71
2023/05/23 04:33:51;;;;;;;66.13;44.42;;;12.80;99.90;;;;;;4957536;28;20059;-71
2023/05/23 04:36:18;;;;;;;69.45;47.72;;;12.70;99.90;;;;;;4961143;28;20046;-71
2023/05/23 04:38:51;;;;;;;76.70;47.70;;;12.70;99.90;;;;;;4961934;28;20057;-71
2023/05/23 04:41:22;;;;;;;76.97;47.92;;;12.80;99.90;;;;;;4959530;28;20039;-70
2023/05/23 04:44:05;;;;;;;74.03;47.45;;;12.80;99.90;;;;;;4963447;28;20402;-69
2023/05/23 04:46:40;;;;;;;76.35;48.13;;;12.70;99.90;;;;;;4950861;28;20043;-69
2023/05/23 04:49:20;;;;;;;80.95;47.03;;;12.70;99.90;;;;;;4975523;28;20061;-69
2023/05/23 04:51:47;;;;;;;66.25;44.72;;;12.80;99.90;;;;;;4974367;28;20117;-69
2023/05/23 04:54:26;;;;;;;79.93;46.78;;;12.80;99.90;;;;;;4971640;28;20047;-69
2023/05/23 04:56:54;;;;;;;65.55;42.55;;;12.80;99.90;;;;;;4956525;28;20094;-69
2023/05/23 04:59:22;;;;;;;61.80;40.70;;;12.80;99.90;;;;;;4962117;28;20440;-69
2023/05/23 05:01:49;;;;;;;62.75;42.35;;;12.70;99.90;;;;;;4960338;28;20046;-69
2023/05/23 05:04:18;;;;;;;62.25;39.78;;;12.70;99.90;;;;;;4961521;28;20230;-69
2023/05/23 05:06:46;;;;;;;60.50;37.90;;;12.70;99.90;;;;;;4958878;28;20469;-69
2023/05/23 05:09:13;;;;;;;58.65;37.25;;;12.70;99.90;;;;;;4964642;28;20220;-69
2023/05/23 05:11:41;;;;;;;72.55;41.92;;;12.70;99.90;;;;;;4972121;28;20125;-70
2023/05/23 05:14:08;;;;;;;70.72;39.83;;;12.70;99.90;;;;;;4964057;28;20076;-70
2023/05/23 05:16:36;;;;;;;82.32;43.65;;;12.70;99.90;;;;;;4974360;28;20046;-70
2023/05/23 05:19:03;;;;;;;85.88;47.20;;;12.80;99.90;;;;;;4968561;28;20497;-70
2023/05/23 05:21:30;;;;;;;81.80;45.45;;;12.80;99.90;;;;;;4956313;28;20089;-70
2023/05/23 05:23:58;;;;;;;82.07;46.50;;;12.80;99.90;;;;;;4974092;28;20039;-69
2023/05/23 05:26:25;;;;;;;80.45;46.80;;;12.80;99.90;;;;;;4975400;28;20039;-69
2023/05/23 05:28:53;;;;;;;89.45;48.75;;;12.80;99.90;;;;;;4963132;28;20133;-70
2023/05/23 05:31:20;;;;;;;92.55;47.90;;;12.80;99.90;;;;;;4955295;28;20181;-69
2023/05/23 05:33:48;;;;;;;85.72;45.92;;;12.80;99.90;;;;;;4974361;28;20050;-69
2023/05/23 05:36:15;;;;;;;94.43;49.97;;;12.90;99.90;;;;;;4962292;28;20034;-69
2023/05/23 05:38:43;;;;;;;113.78;52.53;;;12.80;99.90;;;;;;4977081;28;20130;-70
2023/05/23 05:41:10;;;;;;;135.77;54.20;;;12.80;99.90;;;;;;4954986;28;20057;-69
2023/05/23 05:43:41;;;;;;;181.32;61.50;;;12.80;99.90;;;;;;4954401;28;20046;-70
2023/05/23 05:46:07;;;;;;;159.25;62.00;;;12.80;99.90;;;;;;4964860;28;20412;-70
2023/05/23 05:48:34;;;;;;;137.45;58.47;;;12.80;99.90;;;;;;4960920;28;20333;-69
2023/05/23 05:51:05;;;;;;;139.25;60.00;;;12.80;99.90;;;;;;4959653;28;20201;-70
2023/05/23 05:53:33;;;;;;;124.88;61.28;;;12.80;99.90;;;;;;4956175;28;20117;-70
2023/05/23 05:56:02;;;;;;;114.60;55.53;;;12.70;99.90;;;;;;4978015;28;20113;-70
2023/05/23 05:58:30;;;;;;;115.90;56.95;;;12.70;99.90;;;;;;4941352;28;20058;-70
2023/05/23 06:01:00;;;;;;;110.28;54.13;;;12.70;99.90;;;;;;4975417;28;20038;-69
2023/05/23 06:03:27;;;;;;;118.13;58.40;;;12.70;99.90;;;;;;4974921;28;20062;-68
2023/05/23 06:05:54;;;;;;;129.40;57.92;;;12.70;99.90;;;;;;4976173;28;20192;-70
2023/05/23 06:08:21;;;;;;;127.60;59.47;;;12.70;99.90;;;;;;4960359;28;20109;-70
2023/05/23 06:10:48;;;;;;;124.97;59.42;;;12.70;99.90;;;;;;4970309;28;20058;-70
2023/05/23 06:13:16;;;;;;;109.13;55.50;;;12.80;99.90;;;;;;4957977;28;20053;-69
2023/05/23 06:15:46;;;;;;;118.22;57.05;;;12.70;99.90;;;;;;4958001;28;20572;-70
2023/05/23 06:18:13;;;;;;;125.03;60.22;;;12.70;99.90;;;;;;4947372;28;20575;-70
2023/05/23 06:20:40;;;;;;;134.77;62.83;;;12.70;99.90;;;;;;4971836;28;20410;-70
2023/05/23 06:23:12;;;;;;;132.85;61.55;;;12.80;99.90;;;;;;4976650;28;20397;-70
2023/05/23 06:25:39;;;;;;;111.03;56.60;;;12.80;99.90;;;;;;4975373;28;20043;-70
2023/05/23 06:28:06;;;;;;;114.68;57.05;;;12.80;99.90;;;;;;4959425;28;20580;-69
2023/05/23 06:30:34;;;;;;;108.22;56.03;;;12.80;99.90;;;;;;4956068;28;20038;-69
2023/05/23 06:33:03;;;;;;;122.20;58.88;;;12.70;99.90;;;;;;4957089;28;20074;-71
2023/05/23 06:35:30;;;;;;;113.45;58.83;;;12.70;99.90;;;;;;4960799;28;20690;-70
2023/05/23 06:37:59;;;;;;;123.43;60.00;;;12.70;99.90;;;;;;4980066;28;20441;-70
2023/05/23 06:40:26;;;;;;;102.95;55.25;;;12.80;99.90;;;;;;4956405;28;20042;-71
2023/05/23 06:42:53;;;;;;;90.60;51.22;;;12.80;99.90;;;;;;4957923;28;20121;-68
2023/05/23 06:45:38;;;;;;;104.93;53.60;;;12.80;99.90;;;;;;4960423;28;20054;-68
2023/05/23 06:48:05;;;;;;;92.10;50.05;;;12.70;99.90;;;;;;4957665;28;20043;-70
2023/05/23 06:50:34;;;;;;;89.80;51.45;;;12.70;99.90;;;;;;4959040;28;20047;-69
2023/05/23 06:53:02;;;;;;;106.30;53.25;;;12.70;99.90;;;;;;4980362;28;20046;-69
2023/05/23 06:55:29;;;;;;;102.35;53.15;;;12.80;99.90;;;;;;4966022;28;20042;-68
2023/05/23 06:57:56;;;;;;;100.35;52.83;;;12.80;99.90;;;;;;4963863;28;20050;-70
2023/05/23 07:00:23;;;;;;;108.60;54.47;;;12.90;99.90;;;;;;4955194;28;20054;-68
2023/05/23 07:03:02;;;;;;;105.82;55.45;;;12.90;99.90;;;;;;4980176;28;20505;-70
2023/05/23 07:05:29;;;;;;;107.80;55.05;;;12.90;99.90;;;;;;4967077;28;20058;-67
2023/05/23 07:07:56;;;;;;;95.43;52.97;;;12.90;99.90;;;;;;4956361;28;20088;-69
2023/05/23 07:10:25;;;;;;;104.30;55.63;;;12.80;99.90;;;;;;4977837;28;20404;-69
2023/05/23 07:12:54;;;;;;;101.55;51.70;;;12.70;99.90;;;;;;4964406;28;20485;-69
2023/05/23 07:15:21;;;;;;;80.72;47.10;;;12.70;99.90;;;;;;4967052;28;20045;-69
2023/05/23 07:17:56;;;;;;;;;;;12.70;99.90;;;;;;4963257;28;20436;-69
2023/05/23 07:20:24;;;;;;;98.85;53.40;;;12.70;99.90;;;;;;4976809;28;19925;-69
2023/05/23 07:22:57;;;;;;;80.15;49.15;;;12.70;99.90;;;;;;4965246;28;20066;-69
2023/05/23 07:25:24;;;;;;;82.00;47.72;;;12.70;99.90;;;;;;4967071;28;20049;-68
2023/05/23 07:27:53;;;;;;;75.78;45.67;;;12.60;99.90;;;;;;4960948;28;20058;-70
2023/05/23 07:30:21;;;;;;;77.85;46.65;;;12.50;99.90;;;;;;4960494;28;20606;-68
2023/05/23 07:32:48;;;;;;;80.75;49.85;;;12.40;99.90;;;;;;4964185;28;20484;-69
2023/05/23 07:35:16;;;;;;;94.60;51.67;;;12.40;99.90;;;;;;4969282;28;20463;-70
2023/05/23 07:37:44;;;;;;;101.47;51.10;;;12.40;99.90;;;;;;4958389;28;20437;-69
2023/05/23 07:40:13;;;;;;;87.35;51.58;;;12.30;99.90;;;;;;4978641;28;20061;-69
2023/05/23 07:42:40;;;;;;;89.07;49.42;;;12.30;99.90;;;;;;4978016;28;20432;-68
2023/05/23 07:45:07;;;;;;;89.28;48.72;;;12.30;99.90;;;;;;4980746;28;20054;-69
2023/05/23 07:47:36;;;;;;;85.70;47.55;;;12.30;99.90;;;;;;4959351;28;20074;-68
2023/05/23 07:50:04;;;;;;;71.80;44.97;;;12.20;99.90;;;;;;4964185;28;20555;-70
2023/05/23 07:52:31;;;;;;;80.72;47.88;;;12.20;99.90;;;;;;4963692;28;20133;-69
2023/05/23 07:54:59;;;;;;;77.50;44.45;;;12.20;99.90;;;;;;4958843;28;20061;-69
2023/05/23 07:57:27;;;;;;;79.68;46.38;;;12.20;99.90;;;;;;4960341;28;20034;-68
2023/05/23 07:59:53;;;;;;;84.13;46.55;;;12.10;99.90;;;;;;4957728;28;20039;-70
2023/05/23 08:02:20;;;;;;;70.38;41.55;;;12.20;99.90;;;;;;4966183;28;20416;-68
2023/05/23 08:04:47;;;;;;;62.40;36.67;;;12.20;99.90;;;;;;4954865;28;20049;-69
2023/05/23 08:07:14;;;;;;;66.20;38.40;;;12.10;99.90;;;;;;4977517;28;20061;-69
2023/05/23 08:09:49;;;;;;;67.75;39.17;;;12.10;99.90;;;;;;4960093;28;20070;-69
2023/05/23 08:12:18;;;;;;;55.22;35.50;;;12.10;99.90;;;;;;4956812;28;20428;-69
2023/05/23 08:14:49;;;;;;;59.25;37.58;;;12.00;99.90;;;;;;4962919;28;20043;-68
2023/05/23 08:17:22;;;;;;;56.05;32.90;;;12.00;99.90;;;;;;4956836;28;20038;-69
2023/05/23 08:19:51;;;;;;;37.08;28.20;;;12.00;99.90;;;;;;4974390;28;20043;-69
2023/05/23 08:22:18;;;;;;;50.17;31.08;;;11.90;99.90;;;;;;4976515;28;20108;-69
2023/05/23 08:24:45;;;;;;;45.08;28.58;;;11.90;99.90;;;;;;4961431;28;20046;-69
2023/05/23 08:27:12;;;;;;;44.47;28.92;;;11.80;99.90;;;;;;4963126;28;20094;-70
2023/05/23 08:29:40;;;;;;;40.25;28.00;;;11.80;99.90;;;;;;4958184;28;20065;-70
2023/05/23 08:32:07;;;;;;;39.55;25.15;;;11.80;99.90;;;;;;4963438;28;20129;-69
2023/05/23 08:34:33;;;;;;;32.53;24.08;;;11.80;99.90;;;;;;4962482;28;20459;-68
2023/05/23 08:37:01;;;;;;;34.25;24.48;;;11.60;99.90;;;;;;4956826;28;20047;-69
2023/05/23 08:39:28;;;;;;;29.63;22.30;;;11.60;99.90;;;;;;4961459;28;20137;-70
2023/05/23 08:42:12;;;;;;;21.63;18.95;;;11.60;99.90;;;;;;4964143;28;20182;-69
2023/05/23 08:44:39;;;;;;;21.55;16.90;;;11.50;99.90;;;;;;4946539;28;20445;-70
2023/05/23 08:47:07;;;;;;;22.60;16.90;;;11.50;99.90;;;;;;4957511;28;20047;-68
2023/05/23 08:49:55;;;;;;;20.83;15.60;;;11.60;99.90;;;;;;4962762;28;20066;-69
2023/05/23 08:52:25;;;;;;;22.88;16.85;;;11.50;99.90;;;;;;4963243;28;20657;-69
2023/05/23 08:54:55;;;;;;;17.10;14.18;;;11.50;99.90;;;;;;4955442;28;20304;-68
2023/05/23 08:57:22;;;;;;;19.13;14.88;;;11.50;99.90;;;;;;4974636;28;20381;-68
2023/05/23 08:59:55;;;;;;;17.10;14.77;;;11.50;99.90;;;;;;4959376;28;20146;-69
2023/05/23 09:02:23;;;;;;;17.48;13.88;;;11.50;99.90;;;;;;4963974;28;20046;-68
2023/05/23 09:04:54;;;;;;;13.23;11.90;;;11.50;99.90;;;;;;4956865;28;20638;-69
2023/05/23 09:07:24;;;;;;;11.95;10.95;;;11.50;99.90;;;;;;4973347;28;20345;-68
2023/05/23 09:09:52;;;;;;;13.82;11.18;;;11.40;99.90;;;;;;4976057;28;20266;-69
2023/05/23 09:12:21;;;;;;;11.75;10.70;;;11.40;99.90;;;;;;4962746;28;20046;-71
2023/05/23 09:14:47;;;;;;;11.75;10.65;;;11.40;99.90;;;;;;4958185;28;20134;-68
2023/05/23 09:17:18;;;;;;;13.30;11.98;;;11.30;99.90;;;;;;4973669;28;20408;-69
2023/05/23 09:19:46;;;;;;;14.43;11.43;;;11.40;99.90;;;;;;4956483;28;20253;-67
2023/05/23 09:22:27;;;;;;;9.77;9.18;;;11.50;99.90;;;;;;4959600;28;20495;-73
2023/05/23 09:24:59;;;;;;;10.00;9.13;;;11.40;99.90;;;;;;4976006;28;20047;-71
2023/05/23 09:27:27;;;;;;;11.38;10.27;;;11.40;99.90;;;;;;4945371;28;20451;-69
2023/05/23 09:29:54;;;;;;;10.77;9.88;;;11.40;99.90;;;;;;4955456;28;21239;-72
2023/05/23 09:32:24;;;;;;;9.90;9.20;;;11.50;99.90;;;;;;4975775;28;20042;-70
2023/05/23 09:34:58;;;;;;;10.35;9.55;;;11.50;99.90;;;;;;4976264;28;20051;-69
2023/05/23 09:37:29;;;;;;;12.13;10.57;;;11.40;99.90;;;;;;4960442;28;20046;-70
2023/05/23 09:40:08;;;;;;;10.82;9.93;;;11.40;99.90;;;;;;4973980;28;20054;-70
2023/05/23 09:42:41;;;;;;;13.02;11.68;;;11.40;99.90;;;;;;4949516;28;20054;-70
2023/05/23 09:45:09;;;;;;;11.75;10.90;;;11.60;99.90;;;;;;4960355;28;20118;-70
2023/05/23 09:47:36;;;;;;;13.52;12.32;;;11.50;99.90;;;;;;4956611;28;20137;-71
2023/05/23 09:50:03;;;;;;;12.98;11.68;;;11.40;99.90;;;;;;4958069;28;20043;-71
2023/05/23 09:52:37;;;;;;;13.45;12.02;;;11.50;99.90;;;;;;4957706;28;20770;-70
2023/05/23 09:55:05;;;;;;;12.90;11.70;;;11.40;99.90;;;;;;4960349;28;20039;-70
2023/05/23 09:57:41;;;;;;;13.57;12.32;;;11.40;99.90;;;;;;4959884;28;20074;-70
2023/05/23 10:00:15;;;;;;;13.43;11.85;;;11.40;99.90;;;;;;4976860;28;20706;-72
2023/05/23 10:02:54;;;;;;;16.40;13.95;;;11.40;99.90;;;;;;4956035;28;20117;-71
2023/05/23 10:05:35;;;;;;;15.20;12.95;;;11.40;99.90;;;;;;4974006;28;20080;-71
2023/05/23 10:08:09;;;;;;;16.13;14.45;;;11.40;99.90;;;;;;4960177;28;20106;-73
2023/05/23 10:11:10;;;;;;;15.65;14.15;;;11.50;99.90;;;;;;4959859;28;20058;-71
2023/05/23 10:13:42;;;;;;;17.02;14.65;;;11.50;99.90;;;;;;4973944;28;20174;-70
2023/05/23 10:16:25;;;;;;;17.27;14.32;;;11.50;99.90;;;;;;4976030;28;20055;-71
2023/05/23 10:18:56;;;;;;;17.65;14.82;;;11.60;99.90;;;;;;4958907;28;20278;-71
2023/05/23 10:21:39;;;;;;;19.05;15.63;;;11.40;99.90;;;;;;4962594;28;20050;-72
2023/05/23 10:24:07;;;;;;;18.77;16.85;;;11.50;99.90;;;;;;4964382;28;20042;-71
2023/05/23 10:26:36;;;;;;;27.20;18.02;;;11.60;99.90;;;;;;4965523;28;20050;-70
2023/05/23 10:29:04;;;;;;;22.95;18.98;;;11.60;99.90;;;;;;4977351;28;20174;-70
2023/05/23 10:31:31;;;;;;;23.05;19.98;;;11.70;99.90;;;;;;4960638;28;20074;-71
2023/05/23 10:34:32;;;;;;;31.63;20.02;;;11.60;99.90;;;;;;4960611;28;20055;-70
2023/05/23 10:37:08;;;;;;;27.45;21.13;;;11.50;99.90;;;;;;4942828;28;20081;-71
2023/05/23 10:39:48;;;;;;;34.72;23.58;;;11.50;99.90;;;;;;4963061;28;20070;-71
2023/05/23 10:42:34;;;;;;;33.33;22.27;;;11.50;99.90;;;;;;4959116;28;20051;-71
2023/05/23 10:45:17;;;;;;;39.45;24.95;;;11.40;99.90;;;;;;4974769;28;20465;-71
2023/05/23 10:47:45;;;;;;;35.45;23.95;;;11.30;99.90;;;;;;4962190;28;20061;-71
2023/05/23 10:50:16;;;;;;;40.42;24.15;;;11.40;99.90;;;;;;4976856;28;20038;-71
2023/05/23 10:52:43;;;;;;;34.22;23.10;;;11.30;99.90;;;;;;4958994;28;20566;-71
2023/05/23 10:55:16;;;;;;;33.55;22.50;;;11.40;99.90;;;;;;4963178;28;20104;-72
2023/05/23 10:57:43;;;;;;;35.05;21.17;;;11.20;99.90;;;;;;4957526;28;20046;-72
2023/05/23 11:00:14;;;;;;;31.35;24.70;;;11.20;99.90;;;;;;4976903;28;20069;-71
2023/05/23 11:02:59;;;;;;;40.38;25.10;;;11.20;99.90;;;;;;4960956;28;20130;-71
2023/05/23 11:05:30;;;;;;;34.85;24.92;;;11.10;99.90;;;;;;4980600;28;20051;-70
2023/05/23 11:08:12;;;;;;;41.00;23.45;;;11.10;99.90;;;;;;4965702;28;20050;-74
2023/05/23 11:10:55;;;;;;;47.58;26.70;;;10.90;99.90;;;;;;4963780;28;20050;-73
2023/05/23 11:13:22;;;;;;;43.88;28.15;;;11.00;99.90;;;;;;4979876;28;20445;-73
2023/05/23 11:15:49;;;;;;;51.92;29.05;;;10.90;99.90;;;;;;4963640;28;20761;-73
2023/05/23 11:18:29;;;;;;;49.53;29.65;;;10.90;99.90;;;;;;4968828;28;20047;-70
2023/05/23 11:20:58;;;;;;;43.83;26.98;;;10.90;99.90;;;;;;4961753;28;20049;-71
2023/05/23 11:23:40;;;;;;;52.35;28.13;;;10.80;99.90;;;;;;4959403;28;20088;-70
2023/05/23 11:26:30;;;;;;;49.00;28.35;;;10.80;99.90;;;;;;4963209;28;20561;-73
2023/05/23 11:28:58;;;;;;;41.95;27.08;;;10.80;99.90;;;;;;4972849;28;20043;-73
2023/05/23 11:31:25;;;;;;;52.45;27.95;;;10.90;99.90;;;;;;4959424;28;20042;-73
2023/05/23 11:33:53;;;;;;;41.75;28.30;;;10.90;99.90;;;;;;4959080;28;20521;-73
2023/05/23 11:36:23;;;;;;;39.08;27.88;;;11.00;99.90;;;;;;4957726;28;20576;-73
2023/05/23 11:38:52;;;;;;;44.92;26.77;;;11.00;99.90;;;;;;4956818;28;20401;-73
2023/05/23 11:41:19;;;;;;;50.30;28.42;;;10.90;99.90;;;;;;4958653;28;20043;-73
2023/05/23 11:43:52;;;;;;;52.78;30.17;;;10.90;99.90;;;;;;4959674;28;20364;-73
2023/05/23 11:46:19;;;;;;;55.05;32.13;;;10.80;99.90;;;;;;4957284;28;20524;-72
2023/05/23 11:48:47;;;;;;;52.13;33.60;;;10.80;99.90;;;;;;4960518;28;20070;-72
2023/05/23 11:51:17;;;;;;;58.72;33.50;;;10.80;99.90;;;;;;4961924;28;20607;-72
2023/05/23 11:53:44;;;;;;;55.72;34.05;;;10.70;99.90;;;;;;4961212;28;20073;-72
2023/05/23 11:56:14;;;;;;;55.10;32.22;;;10.70;99.90;;;;;;4977683;28;20069;-71
2023/05/23 11:58:43;;;;;;;48.85;31.65;;;10.60;99.90;;;;;;4963100;28;20355;-71
2023/05/23 12:01:11;;;;;;;43.63;29.00;;;10.60;99.90;;;;;;4957382;28;20077;-71
2023/05/23 12:03:49;;;;;;;45.53;28.80;;;10.50;99.90;;;;;;4959228;28;20057;-71
2023/05/23 12:06:22;;;;;;;42.92;26.88;;;10.50;99.90;;;;;;4959984;28;20039;-71
2023/05/23 12:08:50;;;;;;;45.78;29.48;;;10.40;99.90;;;;;;4958705;28;20414;-71
2023/05/23 12:11:17;;;;;;;45.67;25.05;;;10.50;99.90;;;;;;4958254;28;20399;-71
2023/05/23 12:13:44;;;;;;;36.22;23.30;;;10.40;99.90;;;;;;4974000;28;20053;-70
2023/05/23 12:16:13;;;;;;;50.30;24.63;;;10.40;99.90;;;;;;4956563;28;20141;-71
2023/05/23 12:18:41;;;;;;;38.22;21.58;;;10.60;99.90;;;;;;4955666;28;20051;-71
2023/05/23 12:21:09;;;;;;;46.53;21.30;;;10.90;99.90;;;;;;4956349;28;20078;-71
2023/05/23 12:23:36;;;;;;;36.95;20.88;;;11.00;99.90;;;;;;4943550;28;20043;-70
2023/05/23 12:26:09;;;;;;;32.38;17.80;;;11.30;99.90;;;;;;4974147;28;20509;-71
2023/05/23 12:28:36;;;;;;;26.45;15.75;;;11.30;99.90;;;;;;4962247;28;20075;-69
2023/05/23 12:31:21;;;;;;;27.45;16.42;;;11.10;99.90;;;;;;4972890;28;20307;-71
2023/05/23 12:33:51;;;;;;;26.30;17.20;;;11.00;99.90;;;;;;4959715;28;20043;-73
2023/05/23 12:36:26;;;;;;;31.65;18.27;;;10.90;99.90;;;;;;4962253;28;20332;-71
2023/05/23 12:39:02;;;;;;;25.88;18.33;;;11.00;99.90;;;;;;4959145;28;20057;-71